Decoded Metar for LFQA (REIMS in FRANCE) (IATA:N/A) | Meteo·Mobile Aviation Weather
aviador You're here:

LFQA Decoded Metar

REIMS in FRANCE
Report Time2018-12-14 11:30:00
UTC Time2018-12-14 12:04:17
Flight Rules vfr VFR
Wind040° at 04 kt
W.Decomp.*RWY 07: 3.5 kt HW 2 kt LCW
W.Rank040° ranks 36
Current wind is below 040° avg. (5.0)
Visibility9999 m
Phenomena:N/A
Clouds:Overcast 036 Hf
Expected CloudBase > 2,000 ft AGL from Temp-Dew spread
Ceiling3,600 ft
Temp01°C (ISA -13)
Dew Point-4°C (70% RH)
AAT-2.9°C
QNH1021 hPa
Density Alt-1,526 ft
Elevation312 ft
Report Wrong Elevation
Raw Report
METAR LFQA 141130Z AUTO 04004KT 9999 OVC036 01/M04 Q1021=

Extra information for LFQA:More info

Metar Taf Metar & Taf Last 4 Metars F.Rules Stats Wind Profile Meteogram Temp Stats Airport Information Weather charts Add Link Nearby VenuesMetar ALERT Operation Metar Decoded Social comments